createdAt,value
2019-04-26T00:00:41.422Z,9.7
2019-04-26T00:01:31.976Z,9.6
2019-04-26T00:02:21.266Z,9.6
2019-04-26T00:03:12.370Z,9.6
2019-04-26T00:04:01.859Z,9.6
2019-04-26T00:04:51.439Z,9.6
2019-04-26T00:05:42.607Z,9.6
2019-04-26T00:06:31.849Z,9.6
2019-04-26T00:07:22.502Z,9.6
2019-04-26T00:08:14.169Z,9.6
2019-04-26T00:09:02.359Z,9.6
2019-04-26T00:09:51.826Z,9.6
2019-04-26T00:10:42.954Z,9.6
2019-04-26T00:11:32.214Z,9.5
2019-04-26T00:12:23.410Z,9.5
2019-04-26T00:13:16.145Z,9.5
2019-04-26T00:14:02.403Z,9.5
2019-04-26T00:14:52.873Z,9.5
2019-04-26T00:15:43.068Z,9.5
2019-04-26T00:16:32.604Z,9.4
2019-04-26T00:17:24.459Z,9.4
2019-04-26T00:18:15.173Z,9.4
2019-04-26T00:19:02.844Z,9.4
2019-04-26T00:19:53.373Z,9.4
2019-04-26T00:20:42.912Z,9.4
2019-04-26T00:21:33.730Z,9.4
2019-04-26T00:22:23.026Z,9.4
2019-04-26T00:23:14.601Z,9.4
2019-04-26T00:24:03.303Z,9.4
2019-04-26T00:24:52.908Z,9.4
2019-04-26T00:25:43.242Z,9.4
2019-04-26T00:26:33.312Z,9.4
2019-04-26T00:27:22.548Z,9.4
2019-04-26T00:28:15.149Z,9.3
2019-04-26T00:29:03.517Z,9.3
2019-04-26T00:29:53.300Z,9.3
2019-04-26T00:30:43.634Z,9.3
2019-04-26T00:31:33.415Z,9.3
2019-04-26T00:32:23.755Z,9.3
2019-04-26T00:33:17.203Z,9.3
2019-04-26T00:34:03.920Z,9.3
2019-04-26T00:34:53.930Z,9.3
2019-04-26T00:35:49.326Z,9.3
2019-04-26T00:37:24.115Z,9.3
2019-04-26T00:38:16.068Z,9.3
2019-04-26T00:39:04.255Z,9.2
2019-04-26T00:39:54.308Z,9.2
2019-04-26T00:40:44.365Z,9.2
2019-04-26T00:41:34.432Z,9.2
2019-04-26T00:42:24.207Z,9.2
2019-04-26T00:43:16.845Z,9.2
2019-04-26T00:44:04.612Z,9.1
2019-04-26T00:44:54.675Z,9.1
2019-04-26T00:45:44.757Z,9.1
2019-04-26T00:46:34.297Z,9.1
2019-04-26T00:47:24.857Z,9.1
2019-04-26T00:48:17.326Z,9.1
2019-04-26T00:49:04.981Z,9.1
2019-04-26T00:49:55.049Z,9.1
2019-04-26T00:50:45.104Z,9.1
2019-04-26T00:51:35.191Z,9.1
2019-04-26T00:52:25.244Z,9.1
2019-04-26T00:53:18.129Z,9.1
2019-04-26T00:54:05.364Z,9
2019-04-26T00:54:55.433Z,9
2019-04-26T00:55:45.491Z,9
2019-04-26T00:56:35.279Z,9
2019-04-26T00:57:25.899Z,9
2019-04-26T00:58:20.330Z,9
2019-04-26T00:59:05.455Z,9
2019-04-26T00:59:55.523Z,8.9
2019-04-26T01:00:45.849Z,8.9
2019-04-26T01:01:35.916Z,8.9
2019-04-26T01:02:26.663Z,8.9
2019-04-26T01:03:17.364Z,8.9
2019-04-26T01:04:06.093Z,8.9
2019-04-26T01:04:56.170Z,8.9
2019-04-26T01:05:45.955Z,8.9
2019-04-26T01:06:36.277Z,8.9
2019-04-26T01:07:26.533Z,8.9
2019-04-26T01:08:19.143Z,8.8
2019-04-26T01:09:06.463Z,8.8
2019-04-26T01:09:56.530Z,8.8
2019-04-26T01:10:46.590Z,8.8
2019-04-26T01:11:36.648Z,8.8
2019-04-26T01:12:27.513Z,8.8
2019-04-26T01:13:19.831Z,8.8
2019-04-26T01:14:06.562Z,8.8
2019-04-26T01:14:56.903Z,8.8
2019-04-26T01:15:46.957Z,8.8
2019-04-26T01:16:37.020Z,8.8
2019-04-26T01:17:27.970Z,8.8
2019-04-26T01:18:20.118Z,8.8
2019-04-26T01:19:07.207Z,8.8
2019-04-26T01:19:57.259Z,8.7
2019-04-26T01:20:47.315Z,8.7
2019-04-26T01:21:37.385Z,8.8
2019-04-26T01:22:28.572Z,8.7
2019-04-26T01:23:20.835Z,8.7
2019-04-26T01:24:07.584Z,8.7
2019-04-26T01:24:57.365Z,8.7
2019-04-26T01:25:47.694Z,8.7
2019-04-26T01:26:37.520Z,8.6
2019-04-26T01:27:28.729Z,8.6
2019-04-26T01:28:21.772Z,8.6
2019-04-26T01:29:07.667Z,8.6
2019-04-26T01:29:57.460Z,8.6
2019-04-26T01:30:47.787Z,8.6
2019-04-26T01:31:37.862Z,8.6
2019-04-26T01:32:28.834Z,8.6
2019-04-26T01:33:21.918Z,8.6
2019-04-26T01:34:08.310Z,8.6
2019-04-26T01:34:58.374Z,8.6
2019-04-26T01:35:48.437Z,8.6
2019-04-26T01:36:38.505Z,8.5
2019-04-26T01:37:29.374Z,8.5
2019-04-26T01:38:19.232Z,8.5
2019-04-26T01:39:08.724Z,8.5
2019-04-26T01:39:58.754Z,8.5
2019-04-26T01:40:48.799Z,8.4
2019-04-26T01:41:38.313Z,8.4
2019-04-26T01:42:29.807Z,8.4
2019-04-26T01:43:18.722Z,8.4
2019-04-26T01:44:09.051Z,8.4
2019-04-26T01:44:59.121Z,8.4
2019-04-26T01:45:49.235Z,8.4
2019-04-26T01:46:39.276Z,8.4
2019-04-26T01:47:29.908Z,8.4
2019-04-26T01:48:19.101Z,8.3
2019-04-26T01:49:09.438Z,8.4
2019-04-26T01:49:59.506Z,8.3
2019-04-26T01:50:49.327Z,8.3
2019-04-26T01:51:39.618Z,8.3
2019-04-26T01:52:31.646Z,8.3
2019-04-26T01:53:22.410Z,8.3
2019-04-26T01:54:09.788Z,8.3
2019-04-26T01:54:59.581Z,8.3
2019-04-26T01:55:49.641Z,8.3
2019-04-26T01:56:39.709Z,8.3
2019-04-26T01:57:32.038Z,8.3
2019-04-26T01:58:21.783Z,8.3
2019-04-26T01:59:09.628Z,8.2
2019-04-26T02:00:00.248Z,8.2
2019-04-26T02:00:50.300Z,8.2
2019-04-26T02:01:40.355Z,8.2
2019-04-26T02:02:32.493Z,8.2
2019-04-26T02:03:21.491Z,8.2
2019-04-26T02:04:09.990Z,8.1
2019-04-26T02:05:00.601Z,8.1
2019-04-26T02:05:50.372Z,8.1
2019-04-26T02:06:40.164Z,8.1
2019-04-26T02:07:32.500Z,8.1
2019-04-26T02:08:21.924Z,8.1
2019-04-26T02:09:10.633Z,8.1
2019-04-26T02:10:00.961Z,8.1
2019-04-26T02:10:50.802Z,8.1
2019-04-26T02:11:40.819Z,8.1
2019-04-26T02:12:33.084Z,8.1
2019-04-26T02:13:20.949Z,8.1
2019-04-26T02:14:11.012Z,8
2019-04-26T02:15:01.329Z,8
2019-04-26T02:15:51.394Z,8
2019-04-26T02:16:41.452Z,8
2019-04-26T02:17:32.171Z,8
2019-04-26T02:18:21.036Z,8
2019-04-26T02:19:11.639Z,7.9
2019-04-26T02:20:01.699Z,7.9
2019-04-26T02:20:51.876Z,7.9
2019-04-26T02:21:41.565Z,7.9
2019-04-26T02:22:34.092Z,7.9
2019-04-26T02:23:22.009Z,7.9
2019-04-26T02:24:11.476Z,7.9
2019-04-26T02:25:01.557Z,7.9
2019-04-26T02:25:52.129Z,7.9
2019-04-26T02:26:42.202Z,7.9
2019-04-26T02:27:32.781Z,7.9
2019-04-26T02:28:22.318Z,7.9
2019-04-26T02:29:12.391Z,7.9
2019-04-26T02:30:02.499Z,7.9
2019-04-26T02:30:52.518Z,7.8
2019-04-26T02:31:42.570Z,7.8
2019-04-26T02:32:37.817Z,7.8
2019-04-26T02:33:22.686Z,7.8
2019-04-26T02:34:12.814Z,7.8
2019-04-26T02:35:02.955Z,7.8
2019-04-26T02:35:52.886Z,7.8
2019-04-26T02:36:59.978Z,7.8
2019-04-26T02:39:12.849Z,7.8
2019-04-26T02:40:03.248Z,7.8
2019-04-26T02:40:53.263Z,7.8
2019-04-26T02:41:42.795Z,7.8
2019-04-26T02:42:38.303Z,7.7
2019-04-26T02:44:13.500Z,7.7
2019-04-26T02:45:03.306Z,7.7
2019-04-26T02:45:53.612Z,7.6
2019-04-26T02:46:43.666Z,7.6
2019-04-26T02:47:39.743Z,7.6
2019-04-26T02:49:13.880Z,7.6
2019-04-26T02:50:03.946Z,7.6
2019-04-26T02:50:53.997Z,7.6
2019-04-26T02:51:44.195Z,7.6
2019-04-26T02:52:39.684Z,7.6
2019-04-26T02:53:24.170Z,7.6
2019-04-26T02:54:14.232Z,7.6
2019-04-26T02:55:04.013Z,7.5
2019-04-26T02:55:54.362Z,7.5
2019-04-26T02:56:44.438Z,7.5
2019-04-26T02:57:39.357Z,7.5
2019-04-26T02:58:24.547Z,7.5
2019-04-26T02:59:14.840Z,7.5
2019-04-26T03:00:04.705Z,7.4
2019-04-26T03:00:54.766Z,7.4
2019-04-26T03:01:44.554Z,7.4
2019-04-26T03:02:41.157Z,7.4
2019-04-26T03:03:24.922Z,7.4
2019-04-26T03:07:05.084Z,7.3
2019-04-26T03:08:27.387Z,7.4
2019-04-26T03:09:17.770Z,7.3
2019-04-26T03:10:07.507Z,7.3
2019-04-26T03:11:12.509Z,7.3
2019-04-26T03:12:40.615Z,7.3
2019-04-26T03:13:27.769Z,7.3
2019-04-26T03:14:18.101Z,7.3
2019-04-26T03:15:15.430Z,7.3
2019-04-26T03:15:57.954Z,7.3
2019-04-26T03:16:47.983Z,7.3
2019-04-26T03:17:40.617Z,7.3
2019-04-26T03:18:28.127Z,7.3
2019-04-26T03:19:18.520Z,7.3
2019-04-26T03:20:08.545Z,7.3
2019-04-26T03:20:58.573Z,7.3
2019-04-26T03:21:48.637Z,7.2
2019-04-26T03:22:43.282Z,7.3
2019-04-26T03:23:59.870Z,7.2
2019-04-26T03:25:58.682Z,7.2
2019-04-26T03:26:48.995Z,7.1
2019-04-26T03:27:44.203Z,7.2
2019-04-26T03:28:29.143Z,7.1
2019-04-26T03:29:19.205Z,7.1
2019-04-26T03:30:24.613Z,7.1
2019-04-26T03:31:56.571Z,7.1
2019-04-26T03:32:55.336Z,7.1
2019-04-26T03:34:20.892Z,7.1
2019-04-26T03:35:09.797Z,7.1
2019-04-26T03:36:00.073Z,7.1
2019-04-26T03:36:49.478Z,7.1
2019-04-26T03:37:45.145Z,7.1
2019-04-26T03:38:29.630Z,7.1
2019-04-26T03:39:19.415Z,7.1
2019-04-26T03:40:09.730Z,7.1
2019-04-26T03:41:00.072Z,7.1
2019-04-26T03:41:50.132Z,7.1
2019-04-26T03:42:44.760Z,7.1
2019-04-26T03:43:30.247Z,7.1
2019-04-26T03:44:20.067Z,7.1
2019-04-26T03:45:10.102Z,7
2019-04-26T03:46:00.192Z,7
2019-04-26T03:46:50.312Z,7
2019-04-26T03:47:46.459Z,7
2019-04-26T03:48:30.676Z,7
2019-04-26T03:49:20.816Z,7
2019-04-26T03:50:10.482Z,7
2019-04-26T03:51:00.554Z,7
2019-04-26T03:51:50.594Z,7
2019-04-26T03:52:45.728Z,7
2019-04-26T03:54:21.057Z,7
2019-04-26T03:55:11.117Z,7
2019-04-26T03:56:00.877Z,7
2019-04-26T03:56:51.212Z,7
2019-04-26T03:57:46.694Z,7
2019-04-26T03:58:31.354Z,7
2019-04-26T03:59:21.433Z,7
2019-04-26T04:00:11.469Z,7
2019-04-26T04:02:47.389Z,7
2019-04-26T04:03:31.477Z,7
2019-04-26T04:04:21.520Z,7
2019-04-26T04:05:11.593Z,7
2019-04-26T04:06:01.926Z,7
2019-04-26T04:07:10.133Z,7
2019-04-26T04:09:22.372Z,7.1
2019-04-26T04:10:11.951Z,7.1
2019-04-26T04:11:02.281Z,7.1
2019-04-26T04:12:12.706Z,7.1
2019-04-26T04:14:23.553Z,7.1
2019-04-26T04:15:12.610Z,7.1
2019-04-26T04:16:02.761Z,7.1
2019-04-26T04:16:52.725Z,7.1
2019-04-26T04:17:50.814Z,7.1
2019-04-26T04:19:22.622Z,7.2
2019-04-26T04:20:13.202Z,7.2
2019-04-26T04:21:03.031Z,7.2
2019-04-26T04:22:49.707Z,7.3
2019-04-26T04:23:33.420Z,7.2
2019-04-26T04:24:22.982Z,7.3
2019-04-26T04:25:13.346Z,7.3
2019-04-26T04:26:03.383Z,7.3
2019-04-26T04:26:53.435Z,7.3
2019-04-26T04:27:49.812Z,7.3
2019-04-26T04:28:34.017Z,7.4
2019-04-26T04:29:55.708Z,7.4
2019-04-26T04:31:03.797Z,7.4
2019-04-26T04:31:53.802Z,7.4
2019-04-26T04:32:51.989Z,7.4
2019-04-26T04:34:23.460Z,7.5
2019-04-26T04:35:14.296Z,7.5
2019-04-26T04:36:03.871Z,7.6
2019-04-26T04:36:55.015Z,7.6
2019-04-26T04:38:10.759Z,7.6
2019-04-26T04:40:14.697Z,7.7
2019-04-26T04:41:08.819Z,7.8
2019-04-26T04:41:54.903Z,7.8
2019-04-26T04:42:50.129Z,7.8
2019-04-26T04:44:24.231Z,7.9
2019-04-26T04:45:14.551Z,7.9
2019-04-26T04:46:05.335Z,7.9
2019-04-26T04:46:55.569Z,8
2019-04-26T04:47:54.586Z,8.1
2019-04-26T04:49:25.235Z,8.1
2019-04-26T04:50:15.184Z,8.2
2019-04-26T04:51:05.517Z,8.3
2019-04-26T04:51:54.773Z,8.3
2019-04-26T04:52:51.959Z,8.4
2019-04-26T04:53:35.658Z,8.4
2019-04-26T04:54:25.676Z,8.5
2019-04-26T04:55:15.321Z,8.6
2019-04-26T04:56:55.648Z,8.7
2019-04-26T04:57:46.426Z,8.8
2019-04-26T04:58:35.543Z,8.9
2019-04-26T04:59:25.720Z,9
2019-04-26T05:00:15.897Z,9.1
2019-04-26T05:01:05.958Z,9.2
2019-04-26T05:01:55.767Z,9.3
2019-04-26T05:02:48.640Z,9.4
2019-04-26T05:04:26.199Z,9.6
2019-04-26T05:06:09.343Z,9.8
2019-04-26T05:06:56.403Z,9.9
2019-04-26T05:07:47.767Z,10.1
2019-04-26T05:08:36.249Z,10.2
2019-04-26T05:09:26.587Z,10.3
2019-04-26T05:11:06.744Z,10.5
2019-04-26T05:12:11.422Z,10.6
2019-04-26T05:14:27.009Z,11.1
2019-04-26T05:15:17.001Z,11.2
2019-04-26T05:16:57.130Z,11.5
2019-04-26T05:17:49.452Z,11.6
2019-04-26T05:18:36.981Z,11.8
2019-04-26T05:19:26.770Z,11.9
2019-04-26T05:20:17.376Z,12.1
2019-04-26T05:21:07.181Z,12.3
2019-04-26T05:21:57.246Z,12.4
2019-04-26T05:22:49.314Z,12.6
2019-04-26T05:23:37.355Z,12.8
2019-04-26T05:24:27.733Z,12.9
2019-04-26T05:25:17.743Z,13.1
2019-04-26T05:26:07.543Z,13.3
2019-04-26T05:26:57.886Z,13.4
2019-04-26T05:27:49.311Z,13.6
2019-04-26T05:28:37.998Z,13.8
2019-04-26T05:29:28.283Z,13.9
2019-04-26T05:30:18.112Z,14.1
2019-04-26T05:31:22.566Z,14.3
2019-04-26T05:32:51.103Z,14.8
2019-04-26T05:33:38.083Z,14.9
2019-04-26T05:35:18.223Z,15.3
2019-04-26T05:36:08.280Z,15.5
2019-04-26T05:36:58.612Z,15.8
2019-04-26T05:37:51.745Z,16
2019-04-26T05:38:38.747Z,16.1
2019-04-26T05:39:28.800Z,16.4
2019-04-26T05:41:08.928Z,16.8
2019-04-26T05:42:51.544Z,15.8
2019-04-26T05:43:38.825Z,13.5
2019-04-26T05:44:29.165Z,17.4
2019-04-26T05:45:19.013Z,20.2
2019-04-26T05:46:09.278Z,20.6
2019-04-26T05:46:59.390Z,20.5
2019-04-26T05:48:12.775Z,20.4
2019-04-26T05:49:29.550Z,31.6
2019-04-26T05:50:19.307Z,33.6
2019-04-26T05:51:09.854Z,33.7
2019-04-26T05:51:59.723Z,33.9
2019-04-26T05:52:53.048Z,33.9
2019-04-26T05:53:54.968Z,33.5
2019-04-26T05:55:19.971Z,33
2019-04-26T05:56:09.759Z,32.8
2019-04-26T05:56:59.827Z,32.6
2019-04-26T05:57:54.243Z,32.5
2019-04-26T05:58:40.297Z,32.4
2019-04-26T05:59:30.519Z,32.3
2019-04-26T06:00:20.382Z,32.3
2019-04-26T06:02:01.299Z,32.1
2019-04-26T06:02:53.221Z,32.1
2019-04-26T06:04:47.422Z,35.2
2019-04-26T06:05:37.474Z,39.1
2019-04-26T06:06:27.959Z,39.2
2019-04-26T06:07:17.588Z,40.4
2019-04-26T06:08:07.657Z,41
2019-04-26T06:09:00.089Z,41.1
2019-04-26T06:09:47.510Z,40.9
2019-04-26T06:10:37.842Z,40.8
2019-04-26T06:11:27.612Z,40.8
2019-04-26T06:12:17.954Z,41.1
2019-04-26T06:13:08.021Z,41.3
2019-04-26T06:14:13.906Z,41.6
2019-04-26T06:15:38.211Z,42
2019-04-26T06:16:28.271Z,42.1
2019-04-26T06:17:18.334Z,42.2
2019-04-26T06:18:08.102Z,42.4
2019-04-26T06:18:59.681Z,42.4
2019-04-26T06:19:48.663Z,42.6
2019-04-26T06:20:38.515Z,42.8
2019-04-26T06:21:28.626Z,42.9
2019-04-26T06:22:18.698Z,43
2019-04-26T06:23:08.717Z,43.2
2019-04-26T06:24:00.455Z,43.3
2019-04-26T06:24:48.608Z,43.4
2019-04-26T06:25:38.687Z,43.5
2019-04-26T06:26:28.997Z,43.6
2019-04-26T06:27:19.235Z,43.8
2019-04-26T06:28:09.133Z,43.9
2019-04-26T06:29:01.039Z,44
2019-04-26T06:30:47.030Z,44.3
2019-04-26T06:31:29.374Z,44.4
2019-04-26T06:32:19.643Z,44.5
2019-04-26T06:33:10.336Z,44.6
2019-04-26T06:34:01.403Z,44.8
2019-04-26T06:34:49.625Z,44.9
2019-04-26T06:35:39.402Z,45
2019-04-26T06:36:29.757Z,45.2
2019-04-26T06:37:19.797Z,45.3
2019-04-26T06:38:51.434Z,45.5
2019-04-26T07:04:47.379Z,49.1
2019-04-26T07:05:51.815Z,49.3
2019-04-26T07:06:36.619Z,49.4
2019-04-26T07:08:09.885Z,49.6
2019-04-26T07:09:03.713Z,49.8
2019-04-26T07:09:47.750Z,49.9
2019-04-26T07:10:37.797Z,50.1
2019-04-26T07:12:17.912Z,50.3
2019-04-26T07:13:10.205Z,50.4
2019-04-26T07:14:00.592Z,50.6
2019-04-26T07:14:48.099Z,50.7
2019-04-26T07:15:38.168Z,50.8
2019-04-26T07:16:28.237Z,50.9
2019-04-26T07:17:18.314Z,51.1
2019-04-26T07:18:10.643Z,51.2
2019-04-26T07:18:58.134Z,51.3
2019-04-26T07:19:48.467Z,51.4
2019-04-26T07:20:53.205Z,51.6
2019-04-26T07:22:18.391Z,51.9
2019-04-26T07:23:58.779Z,52.1
2019-04-26T07:25:03.622Z,52.3
2019-04-26T07:26:28.966Z,52.6
2019-04-26T07:27:18.481Z,52.7
2019-04-26T07:28:14.548Z,52.8
2019-04-26T07:29:02.922Z,52.9
2019-04-26T07:29:49.216Z,53.1
2019-04-26T07:30:39.281Z,53.3
2019-04-26T07:31:29.081Z,53.4
2019-04-26T07:33:09.644Z,53.7
2019-04-26T07:33:59.521Z,53.8
2019-04-26T07:35:39.658Z,54.1
2019-04-26T07:36:29.719Z,54.3
2019-04-26T07:37:19.513Z,54.4
2019-04-26T07:38:11.636Z,54.5
2019-04-26T07:39:21.472Z,54.6
2019-04-26T07:40:40.036Z,54.9
2019-04-26T07:41:30.085Z,55.1
2019-04-26T07:42:20.165Z,55.3
2019-04-26T07:43:12.484Z,55.4
2019-04-26T07:44:00.978Z,55.5
2019-04-26T07:44:50.320Z,55.7
2019-04-26T07:45:40.389Z,55.8
2019-04-26T07:46:30.448Z,55.9
2019-04-26T07:47:20.257Z,56.1
2019-04-26T07:48:12.089Z,56.3
2019-04-26T07:49:01.673Z,56.4
2019-04-26T07:49:50.703Z,56.6
2019-04-26T07:50:40.784Z,56.8
2019-04-26T07:51:30.003Z,56.9
2019-04-26T07:52:20.880Z,57
2019-04-26T07:53:11.863Z,57.1
2019-04-26T07:54:01.012Z,57.3
2019-04-26T07:54:50.531Z,57.4
2019-04-26T07:55:41.131Z,57.6
2019-04-26T07:57:21.247Z,57.9
2019-04-26T07:58:13.162Z,58.1
2019-04-26T07:59:08.912Z,58.3
2019-04-26T08:01:30.999Z,58.7
2019-04-26T08:02:21.619Z,58.8
2019-04-26T08:03:13.464Z,58.9
2019-04-26T08:04:01.217Z,59.1
2019-04-26T08:04:51.537Z,59.2
2019-04-26T08:05:41.897Z,59.4
2019-04-26T08:06:31.924Z,59.5
2019-04-26T08:07:22.007Z,59.6
2019-04-26T08:08:13.292Z,59.7
2019-04-26T08:09:01.843Z,59.8
2019-04-26T08:10:00.962Z,59.9
2019-04-26T08:10:42.289Z,60
2019-04-26T08:11:32.300Z,60.1
2019-04-26T08:12:21.834Z,60.3
2019-04-26T08:13:13.554Z,60.5
2019-04-26T08:14:02.494Z,60.7
2019-04-26T08:14:52.286Z,60.8
2019-04-26T08:15:42.351Z,60.9
2019-04-26T08:16:32.691Z,61
2019-04-26T08:17:22.466Z,61.1
2019-04-26T08:18:15.154Z,61.2
2019-04-26T08:19:03.949Z,61.4
2019-04-26T08:19:59.409Z,61.5
2019-04-26T08:20:42.714Z,61.7
2019-04-26T08:21:33.541Z,61.8
2019-04-26T08:22:34.370Z,61.9
2019-04-26T08:23:43.793Z,62.1
2019-04-26T08:24:53.295Z,62.4
2019-04-26T08:25:43.355Z,62.5
2019-04-26T08:26:33.430Z,62.6
2019-04-26T08:27:25.563Z,62.7
2019-04-26T08:28:14.763Z,62.9
2019-04-26T08:29:03.602Z,63
2019-04-26T08:29:53.660Z,63.1
2019-04-26T08:30:47.278Z,63.3
2019-04-26T08:31:33.777Z,63.4
2019-04-26T08:32:23.591Z,63.4
2019-04-26T08:33:18.069Z,63.5
2019-04-26T08:34:03.965Z,63.6
2019-04-26T08:34:54.278Z,63.8
2019-04-26T08:35:53.705Z,63.9
2019-04-26T08:36:34.165Z,64
2019-04-26T08:37:24.262Z,64.1
2019-04-26T08:38:23.728Z,64.1
2019-04-26T08:39:04.354Z,64.3
2019-04-26T08:39:54.134Z,64.4
2019-04-26T08:40:44.477Z,64.4
2019-04-26T08:41:40.768Z,64.5
2019-04-26T08:42:26.547Z,64.6
2019-04-26T08:43:15.478Z,64.6
2019-04-26T08:44:11.218Z,64.7
2019-04-26T08:44:54.495Z,64.9
2019-04-26T08:46:04.354Z,64.9
2019-04-26T08:47:27.854Z,65.1
2019-04-26T08:48:15.669Z,65.1
2019-04-26T08:49:10.842Z,65.2
2019-04-26T08:49:55.149Z,65.3
2019-04-26T08:50:48.049Z,65.4
2019-04-26T08:51:35.024Z,65.4
2019-04-26T08:52:25.344Z,65.6
2019-04-26T08:53:15.389Z,65.6
2019-04-26T08:54:05.468Z,65.7
2019-04-26T08:54:55.530Z,65.8
2019-04-26T08:55:45.023Z,65.9
2019-04-26T08:56:35.637Z,65.9
2019-04-26T08:57:25.701Z,66
2019-04-26T08:58:15.772Z,66.1
2019-04-26T08:59:05.829Z,66.1
2019-04-26T08:59:55.355Z,66.3
2019-04-26T09:00:45.691Z,66.3
2019-04-26T09:01:35.468Z,66.4
2019-04-26T09:02:25.797Z,66.5
2019-04-26T09:03:15.586Z,66.6
2019-04-26T09:04:06.196Z,66.7
2019-04-26T09:04:56.265Z,66.8
2019-04-26T09:05:51.921Z,66.8
2019-04-26T09:06:36.403Z,66.9
2019-04-26T09:07:25.911Z,67
2019-04-26T09:08:16.544Z,67.1
2019-04-26T09:09:06.572Z,67.1
2019-04-26T09:10:11.902Z,67.2
2019-04-26T09:11:36.748Z,67.4
2019-04-26T09:12:26.543Z,67.4
2019-04-26T09:13:16.878Z,67.6
2019-04-26T09:14:06.950Z,67.6
2019-04-26T09:14:57.063Z,67.6
2019-04-26T09:16:49.519Z,67.8
2019-04-26T09:17:34.350Z,67.9
2019-04-26T09:18:17.055Z,68.1
2019-04-26T09:19:07.022Z,68.1
2019-04-26T09:20:09.529Z,68.1
2019-04-26T09:21:37.499Z,68.3
2019-04-26T09:22:29.042Z,68.3
2019-04-26T09:23:17.615Z,68.4
2019-04-26T09:24:09.530Z,68.4
2019-04-26T09:25:02.055Z,68.5
2019-04-26T09:26:00.555Z,68.6
2019-04-26T09:27:27.921Z,68.7
2019-04-26T09:28:17.979Z,68.8
2019-04-26T09:29:08.037Z,68.8
2019-04-26T09:30:06.332Z,68.9
2019-04-26T09:31:38.222Z,69
2019-04-26T09:32:30.674Z,69
2019-04-26T09:33:18.719Z,69.1
2019-04-26T09:34:12.504Z,69.2
2019-04-26T09:34:58.219Z,69.3
2019-04-26T09:35:48.542Z,69.4
2019-04-26T09:36:38.334Z,69.4
2019-04-26T09:38:18.439Z,69.6
2019-04-26T09:39:10.877Z,69.7
2019-04-26T09:40:22.825Z,69.8
2019-04-26T09:41:38.959Z,69.9
2019-04-26T09:42:29.081Z,70
2019-04-26T09:43:19.097Z,70.1
2019-04-26T09:44:09.156Z,70.2
2019-04-26T09:44:58.955Z,70.3
2019-04-26T09:45:49.468Z,70.3
2019-04-26T09:46:38.787Z,70.4
2019-04-26T09:47:29.393Z,70.5
2019-04-26T09:48:19.468Z,70.4
2019-04-26T09:49:10.071Z,69.9
2019-04-26T09:49:59.597Z,69.8
2019-04-26T09:50:49.668Z,69.9
2019-04-26T09:51:41.499Z,70
2019-04-26T09:52:29.764Z,70.2
2019-04-26T09:53:19.852Z,70.3
2019-04-26T09:54:09.903Z,70.3
2019-04-26T09:54:59.683Z,70
2019-04-26T09:55:49.743Z,69.9
2019-04-26T09:56:40.091Z,69.8
2019-04-26T09:57:30.138Z,69.8
2019-04-26T09:58:20.231Z,69.9
2019-04-26T09:59:10.013Z,70.1
2019-04-26T10:00:00.316Z,70.3
2019-04-26T10:00:51.755Z,70.4
2019-04-26T10:01:40.460Z,70.6
2019-04-26T10:02:35.944Z,70.6
2019-04-26T10:03:20.290Z,70.8
2019-04-26T10:05:46.700Z,71
2019-04-26T10:06:37.297Z,71.2
2019-04-26T10:07:27.356Z,71.3
2019-04-26T10:08:17.161Z,71.4
2019-04-26T10:09:07.498Z,71.5
2019-04-26T10:10:02.217Z,71.6
2019-04-26T10:10:47.329Z,71.7
2019-04-26T10:11:45.076Z,71.8
2019-04-26T10:12:27.463Z,71.8
2019-04-26T10:13:17.785Z,71.9
2019-04-26T10:14:07.842Z,72
2019-04-26T10:14:57.653Z,72.1
2019-04-26T10:15:47.977Z,72.3
2019-04-26T10:16:43.238Z,72.4
2019-04-26T10:17:27.811Z,72.5
2019-04-26T10:18:26.485Z,72.6
2019-04-26T10:19:08.210Z,72.6
2019-04-26T10:19:58.279Z,72.8
2019-04-26T10:21:38.438Z,72.9
2019-04-26T10:22:28.197Z,72.9
2019-04-26T10:23:18.252Z,72.9
2019-04-26T10:24:10.052Z,72.9
2019-04-26T10:25:02.228Z,73
2019-04-26T10:26:38.497Z,73.1
2019-04-26T10:27:28.871Z,73.2
2019-04-26T10:28:18.923Z,73.3
2019-04-26T10:29:08.961Z,73.4
2019-04-26T10:30:10.564Z,73.4
2019-04-26T10:31:39.170Z,73.6
2019-04-26T10:32:29.434Z,73.6
2019-04-26T10:33:19.268Z,73.7
2019-04-26T10:34:14.036Z,73.7
2019-04-26T10:34:59.111Z,73.7
2019-04-26T10:36:39.511Z,73.9
2019-04-26T10:37:49.267Z,73.9
2019-04-26T10:39:09.723Z,74.1
2019-04-26T10:39:59.838Z,74.3
2019-04-26T10:40:49.841Z,74.3
2019-04-26T10:41:39.900Z,74.3
2019-04-26T10:42:29.968Z,74.4
2019-04-26T10:43:19.740Z,74.4
2019-04-26T10:44:10.083Z,74.4
2019-04-26T10:45:00.135Z,74.4
2019-04-26T10:45:56.092Z,74.4
2019-04-26T10:46:40.250Z,74.4
2019-04-26T10:48:23.002Z,74.6
2019-04-26T10:49:13.189Z,74.7
2019-04-26T10:50:00.491Z,74.8
2019-04-26T10:50:50.314Z,74.8
2019-04-26T10:51:43.943Z,74.8
2019-04-26T10:52:30.409Z,74.9
2019-04-26T10:53:20.763Z,75
2019-04-26T10:54:10.804Z,75.1
2019-04-26T10:55:00.880Z,75.2
2019-04-26T10:55:52.554Z,75.3
2019-04-26T10:56:40.462Z,75.3
2019-04-26T10:57:31.055Z,75.3
2019-04-26T10:58:20.604Z,75.3
2019-04-26T10:59:11.810Z,75.3
2019-04-26T11:00:00.972Z,75.4
2019-04-26T11:01:41.407Z,75.4
2019-04-26T11:02:31.148Z,75.3
2019-04-26T11:03:21.488Z,75.3
2019-04-26T11:04:11.327Z,74.9
2019-04-26T11:05:01.612Z,74
2019-04-26T11:05:56.119Z,73.9
2019-04-26T11:06:41.737Z,74.7
2019-04-26T11:07:31.825Z,75.3
2019-04-26T11:08:21.915Z,76
2019-04-26T11:09:11.919Z,76.3
2019-04-26T11:10:04.589Z,76.3
2019-04-26T11:10:51.779Z,76.1
2019-04-26T11:11:42.114Z,76
2019-04-26T11:12:31.912Z,75.9
2019-04-26T11:13:21.421Z,75.9
2019-04-26T11:14:12.297Z,76
2019-04-26T11:15:02.377Z,76.1
2019-04-26T11:17:32.009Z,76.3
2019-04-26T11:18:29.368Z,76.4
2019-04-26T11:19:12.686Z,76.4
2019-04-26T11:20:06.138Z,76.4
2019-04-26T11:21:42.579Z,76.6
2019-04-26T11:22:39.679Z,76.6
2019-04-26T11:23:22.966Z,76.6
2019-04-26T11:24:21.464Z,76.6
2019-04-26T11:25:53.314Z,76.8
2019-04-26T11:26:42.680Z,76.8
2019-04-26T11:27:32.733Z,76.9
2019-04-26T11:28:24.214Z,76.9
2019-04-26T11:29:13.139Z,77
2019-04-26T11:30:22.081Z,77.1
2019-04-26T11:32:38.734Z,77.2
2019-04-26T11:33:23.716Z,77.2
2019-04-26T11:34:13.773Z,77.3
2019-04-26T11:35:04.151Z,77.3
2019-04-26T11:35:53.433Z,77.3
2019-04-26T11:36:44.992Z,77.4
2019-04-26T11:37:34.020Z,77.4
2019-04-26T11:38:33.102Z,77.4
2019-04-26T11:40:18.878Z,77.5
2019-04-26T11:41:08.214Z,77.6
2019-04-26T11:42:34.397Z,77.7
2019-04-26T11:43:24.459Z,77.8
2019-04-26T11:44:14.669Z,77.8
2019-04-26T11:45:16.635Z,77.8
2019-04-26T11:46:06.203Z,77.8
2019-04-26T11:47:56.664Z,77.8
2019-04-26T11:49:14.891Z,77.9
2019-04-26T11:50:05.084Z,77.9
2019-04-26T11:51:45.070Z,77.9
2019-04-26T11:52:38.390Z,77.9
2019-04-26T11:53:25.197Z,78
2019-04-26T11:54:22.740Z,78
2019-04-26T11:55:55.390Z,78.1
2019-04-26T11:56:45.437Z,78.1
2019-04-26T11:57:35.238Z,78.1
2019-04-26T11:58:25.640Z,78.1
2019-04-26T11:59:15.640Z,78.1
2019-04-26T12:01:45.839Z,78.2
2019-04-26T12:02:35.610Z,78.2
2019-04-26T12:03:26.957Z,78.1
2019-04-26T12:05:47.167Z,78.4
2019-04-26T12:06:37.237Z,78.4
2019-04-26T12:07:27.009Z,78.5
2019-04-26T12:08:17.337Z,78.6
2019-04-26T12:09:07.125Z,78.6
2019-04-26T12:09:57.204Z,78.6
2019-04-26T12:12:05.208Z,78.6
2019-04-26T12:13:21.245Z,78.6
2019-04-26T12:14:21.537Z,78.7
2019-04-26T12:15:47.631Z,77.9
2019-04-26T12:17:01.258Z,77.8
2019-04-26T12:18:18.312Z,77.8
2019-04-26T12:19:08.158Z,77.8
2019-04-26T12:19:57.961Z,77.9
2019-04-26T12:21:38.069Z,77.9
2019-04-26T12:22:28.390Z,77.9
2019-04-26T12:23:22.864Z,77.9
2019-04-26T12:24:08.299Z,77.9
2019-04-26T12:24:58.589Z,77.9
2019-04-26T12:25:49.751Z,77.8
2019-04-26T12:26:47.376Z,77.8
2019-04-26T12:27:33.182Z,77.8
2019-04-26T12:28:18.563Z,77.8
2019-04-26T12:29:16.190Z,77.8
2019-04-26T12:29:58.970Z,77.8
2019-04-26T12:30:48.758Z,77.8
2019-04-26T12:31:38.861Z,77.8
2019-04-26T12:32:29.147Z,77.8
2019-04-26T12:33:18.935Z,77.8
2019-04-26T12:34:09.260Z,77.9
2019-04-26T12:34:59.088Z,77.9
2019-04-26T12:35:57.985Z,77.9
2019-04-26T12:36:39.453Z,77.9
2019-04-26T12:37:29.265Z,77.8
2019-04-26T12:38:19.577Z,77.5
2019-04-26T12:39:09.635Z,77.4
2019-04-26T12:39:59.700Z,77.4
2019-04-26T12:40:49.492Z,77.5
2019-04-26T12:41:41.909Z,77.5
2019-04-26T12:42:29.619Z,77.5
2019-04-26T12:43:26.677Z,77.5
2019-04-26T12:44:10.014Z,77.5
2019-04-26T12:44:59.830Z,77.5
2019-04-26T12:45:53.559Z,77.4
2019-04-26T12:46:40.207Z,77.4
2019-04-26T12:47:40.105Z,77.3
2019-04-26T12:49:10.099Z,77.3
2019-04-26T12:50:01.935Z,77.3
2019-04-26T12:50:50.511Z,77.2
2019-04-26T12:51:52.026Z,77.1
2019-04-26T12:53:20.721Z,76.6
2019-04-26T12:54:11.462Z,75.9
2019-04-26T12:55:00.586Z,75.1
2019-04-26T12:55:59.194Z,74.8
2019-04-26T12:56:40.940Z,74.8
2019-04-26T12:57:31.010Z,74.6
2019-04-26T12:58:20.774Z,74.8
2019-04-26T12:59:10.572Z,74.4
2019-04-26T13:00:04.717Z,74.3
2019-04-26T13:00:55.794Z,74.1
2019-04-26T13:01:48.138Z,74.8
2019-04-26T13:02:31.132Z,74.4
2019-04-26T13:03:30.423Z,74.3
2019-04-26T13:06:00.180Z,74.7
2019-04-26T13:07:31.476Z,74.3
2019-04-26T13:08:21.798Z,74.1
2019-04-26T13:09:11.869Z,73.8
2019-04-26T13:10:03.269Z,74.8